sensor_id;sensor_type;location;lat;lon;timestamp;pressure;altitude;pressure_sealevel;temperature;humidity
79461;BME280;68929;42.666;23.324;2024-01-15T00:02:09;93934.72;;;8.70;40.49
79461;BME280;68929;42.666;23.324;2024-01-15T00:04:38;93948.47;;;8.72;40.21
79461;BME280;68929;42.666;23.324;2024-01-15T00:07:05;93938.03;;;9.02;40.02
79461;BME280;68929;42.666;23.324;2024-01-15T00:09:30;93922.66;;;8.99;39.53
79461;BME280;68929;42.666;23.324;2024-01-15T00:11:56;93942.31;;;9.14;39.68
79461;BME280;68929;42.666;23.324;2024-01-15T00:14:22;93922.94;;;9.09;39.19
79461;BME280;68929;42.666;23.324;2024-01-15T00:16:47;93942.41;;;9.08;39.98
79461;BME280;68929;42.666;23.324;2024-01-15T00:19:15;93945.66;;;9.39;38.96
79461;BME280;68929;42.666;23.324;2024-01-15T00:21:41;93914.69;;;9.05;39.44
79461;BME280;68929;42.666;23.324;2024-01-15T00:24:07;93933.84;;;9.12;39.36
79461;BME280;68929;42.666;23.324;2024-01-15T00:26:33;93923.09;;;8.96;39.54
79461;BME280;68929;42.666;23.324;2024-01-15T00:28:58;93927.66;;;8.89;40.32
79461;BME280;68929;42.666;23.324;2024-01-15T00:31:23;93920.63;;;9.60;39.25
79461;BME280;68929;42.666;23.324;2024-01-15T00:33:49;93944.16;;;9.32;38.94
79461;BME280;68929;42.666;23.324;2024-01-15T00:36:14;93931.84;;;9.08;39.59
79461;BME280;68929;42.666;23.324;2024-01-15T00:38:42;93920.69;;;8.94;39.95
79461;BME280;68929;42.666;23.324;2024-01-15T00:41:07;93943.94;;;8.97;40.24
79461;BME280;68929;42.666;23.324;2024-01-15T00:43:33;93919.59;;;8.83;39.89
79461;BME280;68929;42.666;23.324;2024-01-15T00:46:02;93927.94;;;8.62;40.45
79461;BME280;68929;42.666;23.324;2024-01-15T00:48:27;93930.72;;;8.67;40.29
79461;BME280;68929;42.666;23.324;2024-01-15T00:50:53;93936.88;;;8.61;39.93
79461;BME280;68929;42.666;23.324;2024-01-15T00:53:19;93947.25;;;8.74;40.66
79461;BME280;68929;42.666;23.324;2024-01-15T00:55:47;93919.78;;;8.64;39.83
79461;BME280;68929;42.666;23.324;2024-01-15T00:58:13;93908.59;;;8.32;41.18
79461;BME280;68929;42.666;23.324;2024-01-15T01:00:38;93930.56;;;8.44;41.31
79461;BME280;68929;42.666;23.324;2024-01-15T01:03:04;93920.31;;;8.54;40.30
79461;BME280;68929;42.666;23.324;2024-01-15T01:05:29;93943.00;;;8.73;40.71
79461;BME280;68929;42.666;23.324;2024-01-15T01:07:55;93942.72;;;8.81;40.52
79461;BME280;68929;42.666;23.324;2024-01-15T01:10:20;93943.75;;;8.99;40.28
79461;BME280;68929;42.666;23.324;2024-01-15T01:12:46;93911.81;;;8.70;39.89
79461;BME280;68929;42.666;23.324;2024-01-15T01:15:11;93914.91;;;8.67;39.79
79461;BME280;68929;42.666;23.324;2024-01-15T01:17:37;93914.03;;;8.73;40.29
79461;BME280;68929;42.666;23.324;2024-01-15T01:20:02;93930.41;;;8.94;39.52
79461;BME280;68929;42.666;23.324;2024-01-15T01:22:30;93934.81;;;8.63;40.53
79461;BME280;68929;42.666;23.324;2024-01-15T01:24:55;93927.84;;;8.69;40.08
79461;BME280;68929;42.666;23.324;2024-01-15T01:27:21;93923.31;;;8.94;40.12
79461;BME280;68929;42.666;23.324;2024-01-15T01:29:47;93912.13;;;8.62;39.84
79461;BME280;68929;42.666;23.324;2024-01-15T01:32:12;93897.06;;;8.69;39.98
79461;BME280;68929;42.666;23.324;2024-01-15T01:34:41;93913.00;;;8.93;39.54
79461;BME280;68929;42.666;23.324;2024-01-15T01:37:14;93923.66;;;8.98;39.51
79461;BME280;68929;42.666;23.324;2024-01-15T01:39:40;93904.63;;;8.41;40.91
79461;BME280;68929;42.666;23.324;2024-01-15T01:42:06;93908.47;;;8.63;39.87
79461;BME280;68929;42.666;23.324;2024-01-15T01:44:32;93895.28;;;8.45;39.76
79461;BME280;68929;42.666;23.324;2024-01-15T01:46:58;93895.59;;;8.73;40.17
79461;BME280;68929;42.666;23.324;2024-01-15T01:49:25;93901.06;;;8.72;40.11
79461;BME280;68929;42.666;23.324;2024-01-15T01:51:51;93894.72;;;8.61;39.97
79461;BME280;68929;42.666;23.324;2024-01-15T01:54:19;93893.13;;;8.18;40.29
79461;BME280;68929;42.666;23.324;2024-01-15T01:56:45;93894.75;;;8.37;40.33
79461;BME280;68929;42.666;23.324;2024-01-15T01:59:12;93905.44;;;8.60;40.24
79461;BME280;68929;42.666;23.324;2024-01-15T02:01:38;93904.38;;;8.67;40.22
79461;BME280;68929;42.666;23.324;2024-01-15T02:04:04;93884.75;;;8.63;40.23
79461;BME280;68929;42.666;23.324;2024-01-15T02:06:30;93861.31;;;8.92;39.25
79461;BME280;68929;42.666;23.324;2024-01-15T02:08:55;93889.25;;;9.11;38.89
79461;BME280;68929;42.666;23.324;2024-01-15T02:11:21;93902.00;;;8.96;39.66
79461;BME280;68929;42.666;23.324;2024-01-15T02:13:47;93896.81;;;8.71;40.02
79461;BME280;68929;42.666;23.324;2024-01-15T02:16:13;93859.56;;;8.85;39.08
79461;BME280;68929;42.666;23.324;2024-01-15T02:18:42;93862.66;;;8.64;39.83
79461;BME280;68929;42.666;23.324;2024-01-15T02:21:09;93873.84;;;9.08;39.66
79461;BME280;68929;42.666;23.324;2024-01-15T02:23:34;93849.28;;;8.96;39.33
79461;BME280;68929;42.666;23.324;2024-01-15T02:26:00;93846.97;;;8.88;39.96
79461;BME280;68929;42.666;23.324;2024-01-15T02:28:26;93824.59;;;8.60;38.71
79461;BME280;68929;42.666;23.324;2024-01-15T02:30:51;93800.84;;;8.78;40.17
79461;BME280;68929;42.666;23.324;2024-01-15T02:33:17;93816.97;;;8.89;39.31
79461;BME280;68929;42.666;23.324;2024-01-15T02:35:42;93838.63;;;8.91;39.50
79461;BME280;68929;42.666;23.324;2024-01-15T02:38:08;93844.47;;;8.93;39.97
79461;BME280;68929;42.666;23.324;2024-01-15T02:40:34;93818.63;;;8.83;39.29
79461;BME280;68929;42.666;23.324;2024-01-15T02:43:00;93811.94;;;8.69;39.83
79461;BME280;68929;42.666;23.324;2024-01-15T02:45:26;93834.72;;;8.93;39.79
79461;BME280;68929;42.666;23.324;2024-01-15T02:47:52;93811.81;;;8.94;39.66
79461;BME280;68929;42.666;23.324;2024-01-15T02:50:17;93835.13;;;9.08;39.67
79461;BME280;68929;42.666;23.324;2024-01-15T02:52:43;93819.63;;;9.00;39.11
79461;BME280;68929;42.666;23.324;2024-01-15T02:55:08;93798.53;;;8.70;39.47
79461;BME280;68929;42.666;23.324;2024-01-15T02:57:34;93815.34;;;8.88;39.01
79461;BME280;68929;42.666;23.324;2024-01-15T03:00:00;93812.03;;;8.92;39.41
79461;BME280;68929;42.666;23.324;2024-01-15T03:02:25;93802.59;;;8.84;39.07
79461;BME280;68929;42.666;23.324;2024-01-15T03:04:51;93834.09;;;8.79;39.13
79461;BME280;68929;42.666;23.324;2024-01-15T03:07:17;93788.47;;;8.67;39.60
79461;BME280;68929;42.666;23.324;2024-01-15T03:09:43;93804.53;;;8.77;39.57
79461;BME280;68929;42.666;23.324;2024-01-15T03:12:09;93818.91;;;8.93;39.78
79461;BME280;68929;42.666;23.324;2024-01-15T03:14:35;93798.31;;;9.02;39.81
79461;BME280;68929;42.666;23.324;2024-01-15T03:17:00;93810.00;;;9.06;39.40
79461;BME280;68929;42.666;23.324;2024-01-15T03:19:26;93813.69;;;9.46;38.94
79461;BME280;68929;42.666;23.324;2024-01-15T03:21:52;93814.13;;;9.43;38.51
79461;BME280;68929;42.666;23.324;2024-01-15T03:24:17;93789.25;;;8.98;39.41
79461;BME280;68929;42.666;23.324;2024-01-15T03:26:43;93800.50;;;9.46;39.97
79461;BME280;68929;42.666;23.324;2024-01-15T03:29:08;93785.25;;;9.71;38.57
79461;BME280;68929;42.666;23.324;2024-01-15T03:31:34;93779.50;;;9.39;38.89
79461;BME280;68929;42.666;23.324;2024-01-15T03:33:59;93775.72;;;9.58;38.69
79461;BME280;68929;42.666;23.324;2024-01-15T03:36:25;93788.72;;;9.83;38.99
79461;BME280;68929;42.666;23.324;2024-01-15T03:38:50;93788.94;;;9.93;38.55
79461;BME280;68929;42.666;23.324;2024-01-15T03:41:16;93788.94;;;9.70;38.61
79461;BME280;68929;42.666;23.324;2024-01-15T03:43:41;93784.44;;;9.36;39.37
79461;BME280;68929;42.666;23.324;2024-01-15T03:46:07;93773.75;;;9.31;39.68
79461;BME280;68929;42.666;23.324;2024-01-15T03:48:32;93793.25;;;9.30;39.54
79461;BME280;68929;42.666;23.324;2024-01-15T03:50:58;93771.78;;;9.26;39.47
79461;BME280;68929;42.666;23.324;2024-01-15T03:53:23;93795.63;;;9.20;39.59
79461;BME280;68929;42.666;23.324;2024-01-15T03:55:50;93796.84;;;9.06;38.98
79461;BME280;68929;42.666;23.324;2024-01-15T03:58:16;93810.69;;;9.01;39.74
79461;BME280;68929;42.666;23.324;2024-01-15T04:00:42;93800.78;;;8.85;39.37
79461;BME280;68929;42.666;23.324;2024-01-15T04:03:07;93799.59;;;8.33;39.54
79461;BME280;68929;42.666;23.324;2024-01-15T04:05:33;93768.44;;;8.78;40.00
79461;BME280;68929;42.666;23.324;2024-01-15T04:07:58;93771.84;;;8.97;38.61
79461;BME280;68929;42.666;23.324;2024-01-15T04:10:24;93767.84;;;8.28;40.43
79461;BME280;68929;42.666;23.324;2024-01-15T04:12:49;93783.78;;;8.15;41.01
79461;BME280;68929;42.666;23.324;2024-01-15T04:15:15;93775.88;;;8.69;39.70
79461;BME280;68929;42.666;23.324;2024-01-15T04:17:41;93782.03;;;8.63;40.33
79461;BME280;68929;42.666;23.324;2024-01-15T04:20:07;93791.56;;;8.46;39.83
79461;BME280;68929;42.666;23.324;2024-01-15T04:22:34;93756.84;;;7.95;41.00
79461;BME280;68929;42.666;23.324;2024-01-15T04:25:00;93754.31;;;7.88;39.38
79461;BME280;68929;42.666;23.324;2024-01-15T04:27:25;93759.41;;;7.41;42.37
79461;BME280;68929;42.666;23.324;2024-01-15T04:29:51;93768.47;;;7.20;40.91
79461;BME280;68929;42.666;23.324;2024-01-15T04:32:16;93785.28;;;6.06;44.55
79461;BME280;68929;42.666;23.324;2024-01-15T04:34:42;93766.66;;;5.11;44.38
79461;BME280;68929;42.666;23.324;2024-01-15T04:37:07;93758.88;;;3.77;48.44
79461;BME280;68929;42.666;23.324;2024-01-15T04:39:33;93794.28;;;3.79;48.68
79461;BME280;68929;42.666;23.324;2024-01-15T04:41:58;93777.50;;;3.61;49.02
79461;BME280;68929;42.666;23.324;2024-01-15T04:44:24;93760.44;;;3.71;50.99
79461;BME280;68929;42.666;23.324;2024-01-15T04:46:49;93792.94;;;4.44;49.77
79461;BME280;68929;42.666;23.324;2024-01-15T04:49:14;93754.78;;;5.21;47.29
79461;BME280;68929;42.666;23.324;2024-01-15T04:51:40;93785.38;;;4.15;48.17
79461;BME280;68929;42.666;23.324;2024-01-15T04:54:05;93774.00;;;4.42;49.19
79461;BME280;68929;42.666;23.324;2024-01-15T04:56:31;93756.75;;;4.67;48.39
79461;BME280;68929;42.666;23.324;2024-01-15T04:58:56;93736.28;;;6.00;46.71
79461;BME280;68929;42.666;23.324;2024-01-15T05:01:25;93756.41;;;6.06;43.76
79461;BME280;68929;42.666;23.324;2024-01-15T05:03:50;93771.31;;;5.15;45.54
79461;BME280;68929;42.666;23.324;2024-01-15T05:06:16;93767.13;;;6.11;45.24
79461;BME280;68929;42.666;23.324;2024-01-15T05:08:41;93754.44;;;7.08;43.69
79461;BME280;68929;42.666;23.324;2024-01-15T05:11:06;93746.50;;;8.00;41.53
79461;BME280;68929;42.666;23.324;2024-01-15T05:13:32;93665.19;;;8.10;39.99
79461;BME280;68929;42.666;23.324;2024-01-15T05:15:57;93708.78;;;8.54;40.14
79461;BME280;68929;42.666;23.324;2024-01-15T05:18:23;93735.69;;;8.85;40.30
79461;BME280;68929;42.666;23.324;2024-01-15T05:20:48;93705.09;;;8.84;37.67
79461;BME280;68929;42.666;23.324;2024-01-15T05:23:14;93737.25;;;7.55;41.29
79461;BME280;68929;42.666;23.324;2024-01-15T05:25:39;93746.09;;;5.34;44.08
79461;BME280;68929;42.666;23.324;2024-01-15T05:28:05;93716.72;;;6.71;44.76
79461;BME280;68929;42.666;23.324;2024-01-15T05:30:30;93751.72;;;7.21;42.75
79461;BME280;68929;42.666;23.324;2024-01-15T05:32:56;93741.06;;;5.06;45.03
79461;BME280;68929;42.666;23.324;2024-01-15T05:35:22;93728.31;;;4.51;48.13
79461;BME280;68929;42.666;23.324;2024-01-15T05:37:51;93751.47;;;4.41;47.36
79461;BME280;68929;42.666;23.324;2024-01-15T05:40:16;93737.22;;;3.89;48.81
79461;BME280;68929;42.666;23.324;2024-01-15T05:42:42;93725.41;;;3.59;49.47
79461;BME280;68929;42.666;23.324;2024-01-15T05:45:08;93732.97;;;3.41;51.02
79461;BME280;68929;42.666;23.324;2024-01-15T05:47:33;93735.53;;;3.07;51.27
79461;BME280;68929;42.666;23.324;2024-01-15T05:50:00;93731.03;;;3.22;53.44
79461;BME280;68929;42.666;23.324;2024-01-15T05:52:26;93736.50;;;3.27;51.43
79461;BME280;68929;42.666;23.324;2024-01-15T05:54:54;93697.97;;;5.02;50.02
79461;BME280;68929;42.666;23.324;2024-01-15T05:57:20;93724.31;;;5.20;46.87
79461;BME280;68929;42.666;23.324;2024-01-15T05:59:45;93700.66;;;4.02;48.57
79461;BME280;68929;42.666;23.324;2024-01-15T06:02:11;93738.78;;;3.84;50.83
79461;BME280;68929;42.666;23.324;2024-01-15T06:04:36;93739.91;;;3.00;51.76
79461;BME280;68929;42.666;23.324;2024-01-15T06:07:02;93740.25;;;3.52;50.85
79461;BME280;68929;42.666;23.324;2024-01-15T06:09:28;93747.06;;;4.48;51.18
79461;BME280;68929;42.666;23.324;2024-01-15T06:11:53;93745.06;;;4.76;48.59
79461;BME280;68929;42.666;23.324;2024-01-15T06:14:19;93720.06;;;3.80;52.29
79461;BME280;68929;42.666;23.324;2024-01-15T06:16:46;93726.47;;;7.13;46.23
79461;BME280;68929;42.666;23.324;2024-01-15T06:19:12;93721.78;;;7.47;43.47
79461;BME280;68929;42.666;23.324;2024-01-15T06:21:38;93729.56;;;6.86;44.77
79461;BME280;68929;42.666;23.324;2024-01-15T06:24:03;93711.47;;;6.71;45.25
79461;BME280;68929;42.666;23.324;2024-01-15T06:26:29;93688.84;;;7.19;43.15
79461;BME280;68929;42.666;23.324;2024-01-15T06:28:55;93694.59;;;6.85;44.19
79461;BME280;68929;42.666;23.324;2024-01-15T06:31:20;93731.38;;;6.54;45.29
79461;BME280;68929;42.666;23.324;2024-01-15T06:33:46;93708.56;;;6.17;44.48
79461;BME280;68929;42.666;23.324;2024-01-15T06:36:13;93715.91;;;5.95;47.04
79461;BME280;68929;42.666;23.324;2024-01-15T06:38:39;93707.63;;;4.75;47.57
79461;BME280;68929;42.666;23.324;2024-01-15T06:41:05;93712.41;;;4.33;50.45
79461;BME280;68929;42.666;23.324;2024-01-15T06:43:30;93726.56;;;5.23;50.07
79461;BME280;68929;42.666;23.324;2024-01-15T06:45:56;93715.81;;;6.15;45.77
79461;BME280;68929;42.666;23.324;2024-01-15T06:48:21;93728.38;;;4.90;47.91
79461;BME280;68929;42.666;23.324;2024-01-15T06:50:47;93712.88;;;4.69;49.37
79461;BME280;68929;42.666;23.324;2024-01-15T06:53:12;93731.59;;;4.85;49.32
79461;BME280;68929;42.666;23.324;2024-01-15T06:55:38;93739.81;;;4.50;50.35
79461;BME280;68929;42.666;23.324;2024-01-15T06:58:22;93746.63;;;5.62;51.03
79461;BME280;68929;42.666;23.324;2024-01-15T07:00:54;93740.94;;;5.78;48.52
79461;BME280;68929;42.666;23.324;2024-01-15T07:03:20;93742.03;;;7.40;44.55
79461;BME280;68929;42.666;23.324;2024-01-15T07:05:45;93724.97;;;7.49;45.45
79461;BME280;68929;42.666;23.324;2024-01-15T07:08:11;93750.84;;;6.40;45.09
79461;BME280;68929;42.666;23.324;2024-01-15T07:10:36;93750.63;;;5.84;47.79
79461;BME280;68929;42.666;23.324;2024-01-15T07:13:02;93732.88;;;5.80;46.64
79461;BME280;68929;42.666;23.324;2024-01-15T07:15:27;93735.41;;;5.35;48.64
79461;BME280;68929;42.666;23.324;2024-01-15T07:17:53;93758.78;;;4.98;49.28
79461;BME280;68929;42.666;23.324;2024-01-15T07:20:18;93727.31;;;5.56;48.37
79461;BME280;68929;42.666;23.324;2024-01-15T07:22:44;93705.97;;;4.55;47.88
79461;BME280;68929;42.666;23.324;2024-01-15T07:25:10;93721.13;;;4.92;50.42
79461;BME280;68929;42.666;23.324;2024-01-15T07:27:43;93567.91;;;4.31;47.84
79461;BME280;68929;42.666;23.324;2024-01-15T07:30:11;93733.00;;;5.01;50.24
79461;BME280;68929;42.666;23.324;2024-01-15T07:32:41;93722.00;;;5.69;49.47
79461;BME280;68929;42.666;23.324;2024-01-15T07:35:10;93731.31;;;6.29;46.58
79461;BME280;68929;42.666;23.324;2024-01-15T07:37:41;93726.78;;;5.99;47.11
79461;BME280;68929;42.666;23.324;2024-01-15T07:40:07;93711.31;;;5.78;49.23
79461;BME280;68929;42.666;23.324;2024-01-15T07:42:44;93715.41;;;6.18;49.07
79461;BME280;68929;42.666;23.324;2024-01-15T07:45:10;93732.47;;;6.71;47.19
79461;BME280;68929;42.666;23.324;2024-01-15T07:47:36;93750.91;;;6.20;46.74
79461;BME280;68929;42.666;23.324;2024-01-15T07:50:02;93727.72;;;5.40;49.40
79461;BME280;68929;42.666;23.324;2024-01-15T07:52:28;93746.63;;;7.69;45.77
79461;BME280;68929;42.666;23.324;2024-01-15T07:54:53;93729.00;;;7.26;43.88
79461;BME280;68929;42.666;23.324;2024-01-15T07:57:20;93742.59;;;7.23;46.12
79461;BME280;68929;42.666;23.324;2024-01-15T07:59:56;93696.59;;;8.41;42.74
79461;BME280;68929;42.666;23.324;2024-01-15T08:02:22;93716.25;;;9.10;43.10
79461;BME280;68929;42.666;23.324;2024-01-15T08:04:48;93709.53;;;9.60;41.00
79461;BME280;68929;42.666;23.324;2024-01-15T08:07:21;93700.13;;;9.18;40.71
79461;BME280;68929;42.666;23.324;2024-01-15T08:09:46;93709.09;;;10.37;40.01
79461;BME280;68929;42.666;23.324;2024-01-15T08:12:13;93678.75;;;10.00;39.67
79461;BME280;68929;42.666;23.324;2024-01-15T08:14:38;93674.84;;;10.14;39.27
79461;BME280;68929;42.666;23.324;2024-01-15T08:17:04;93723.16;;;10.15;39.39
79461;BME280;68929;42.666;23.324;2024-01-15T08:19:29;93727.56;;;9.63;40.34
79461;BME280;68929;42.666;23.324;2024-01-15T08:21:55;93712.44;;;9.47;40.13
79461;BME280;68929;42.666;23.324;2024-01-15T08:24:20;93714.56;;;9.27;40.66
79461;BME280;68929;42.666;23.324;2024-01-15T08:26:46;93729.25;;;9.23;40.24
79461;BME280;68929;42.666;23.324;2024-01-15T08:29:11;93742.91;;;8.49;40.71
79461;BME280;68929;42.666;23.324;2024-01-15T08:31:45;93717.69;;;8.05;42.36
79461;BME280;68929;42.666;23.324;2024-01-15T08:34:10;93729.75;;;7.94;43.44
79461;BME280;68929;42.666;23.324;2024-01-15T08:36:36;93712.13;;;7.59;43.59
79461;BME280;68929;42.666;23.324;2024-01-15T08:39:02;93693.78;;;6.54;44.05
79461;BME280;68929;42.666;23.324;2024-01-15T08:41:35;93693.06;;;6.09;47.18
79461;BME280;68929;42.666;23.324;2024-01-15T08:44:01;93722.47;;;6.55;46.57
79461;BME280;68929;42.666;23.324;2024-01-15T08:46:28;93696.88;;;7.24;45.60
79461;BME280;68929;42.666;23.324;2024-01-15T08:48:58;93690.03;;;7.23;43.15
79461;BME280;68929;42.666;23.324;2024-01-15T08:51:24;93701.69;;;6.78;45.26
79461;BME280;68929;42.666;23.324;2024-01-15T08:53:49;93683.50;;;6.52;44.84
79461;BME280;68929;42.666;23.324;2024-01-15T08:56:15;93715.78;;;6.90;46.38
79461;BME280;68929;42.666;23.324;2024-01-15T08:58:40;93689.59;;;6.77;44.52
79461;BME280;68929;42.666;23.324;2024-01-15T09:01:06;93640.00;;;6.07;44.96
79461;BME280;68929;42.666;23.324;2024-01-15T09:03:32;93660.53;;;6.10;47.53
79461;BME280;68929;42.666;23.324;2024-01-15T09:06:00;93676.13;;;6.05;46.82
79461;BME280;68929;42.666;23.324;2024-01-15T09:08:26;93680.44;;;5.80;47.27
79461;BME280;68929;42.666;23.324;2024-01-15T09:10:52;93659.78;;;6.03;47.27
79461;BME280;68929;42.666;23.324;2024-01-15T09:13:18;93648.22;;;5.59;47.08
79461;BME280;68929;42.666;23.324;2024-01-15T09:15:54;93651.00;;;5.78;48.25
79461;BME280;68929;42.666;23.324;2024-01-15T09:18:19;93605.19;;;6.74;46.82
79461;BME280;68929;42.666;23.324;2024-01-15T09:20:45;93617.91;;;6.95;44.49
79461;BME280;68929;42.666;23.324;2024-01-15T09:23:17;93623.53;;;6.49;45.79
79461;BME280;68929;42.666;23.324;2024-01-15T09:25:43;93624.50;;;6.61;45.89
79461;BME280;68929;42.666;23.324;2024-01-15T09:28:08;93616.69;;;6.23;45.31
79461;BME280;68929;42.666;23.324;2024-01-15T09:30:34;93596.13;;;6.45;46.87
79461;BME280;68929;42.666;23.324;2024-01-15T09:32:59;93622.63;;;6.86;45.26
79461;BME280;68929;42.666;23.324;2024-01-15T09:35:25;93628.25;;;7.14;46.15
79461;BME280;68929;42.666;23.324;2024-01-15T09:37:50;93598.75;;;7.12;44.16
79461;BME280;68929;42.666;23.324;2024-01-15T09:40:16;93601.84;;;7.28;44.65
79461;BME280;68929;42.666;23.324;2024-01-15T09:42:42;93594.97;;;7.08;44.62
79461;BME280;68929;42.666;23.324;2024-01-15T09:45:08;93590.41;;;7.99;45.79
79461;BME280;68929;42.666;23.324;2024-01-15T09:47:35;93571.69;;;8.37;42.43
79461;BME280;68929;42.666;23.324;2024-01-15T09:50:02;93564.72;;;7.54;43.02
79461;BME280;68929;42.666;23.324;2024-01-15T09:52:54;93542.47;;;7.68;45.02
79461;BME280;68929;42.666;23.324;2024-01-15T09:55:19;93561.19;;;7.78;44.56
79461;BME280;68929;42.666;23.324;2024-01-15T09:57:45;93544.38;;;7.79;45.46
79461;BME280;68929;42.666;23.324;2024-01-15T10:00:12;93535.22;;;8.99;43.48
79461;BME280;68929;42.666;23.324;2024-01-15T10:02:37;93528.47;;;9.82;40.06
79461;BME280;68929;42.666;23.324;2024-01-15T10:05:03;93553.63;;;8.11;42.12
79461;BME280;68929;42.666;23.324;2024-01-15T10:07:29;93547.78;;;8.09;44.98
79461;BME280;68929;42.666;23.324;2024-01-15T10:09:54;93560.03;;;7.74;44.71
79461;BME280;68929;42.666;23.324;2024-01-15T10:12:26;93540.78;;;9.14;42.96
79461;BME280;68929;42.666;23.324;2024-01-15T10:14:52;93530.72;;;9.11;41.83
79461;BME280;68929;42.666;23.324;2024-01-15T10:17:26;93531.97;;;9.08;43.69
79461;BME280;68929;42.666;23.324;2024-01-15T10:19:56;93515.75;;;9.51;40.48
79461;BME280;68929;42.666;23.324;2024-01-15T10:22:22;93508.25;;;9.20;40.89
79461;BME280;68929;42.666;23.324;2024-01-15T10:24:48;93500.28;;;7.63;41.72
79461;BME280;68929;42.666;23.324;2024-01-15T10:27:14;93518.94;;;8.44;43.61
79461;BME280;68929;42.666;23.324;2024-01-15T10:29:41;93491.88;;;9.46;42.56
79461;BME280;68929;42.666;23.324;2024-01-15T10:32:08;93501.50;;;9.52;40.22
79461;BME280;68929;42.666;23.324;2024-01-15T10:34:38;93482.09;;;9.58;41.41
79461;BME280;68929;42.666;23.324;2024-01-15T10:37:07;93526.34;;;9.68;38.92
79461;BME280;68929;42.666;23.324;2024-01-15T10:39:32;93485.94;;;8.88;39.36
79461;BME280;68929;42.666;23.324;2024-01-15T10:41:58;93497.75;;;8.73;43.03
79461;BME280;68929;42.666;23.324;2024-01-15T10:44:33;93488.78;;;8.98;41.89
79461;BME280;68929;42.666;23.324;2024-01-15T10:46:59;93488.06;;;9.14;40.29
79461;BME280;68929;42.666;23.324;2024-01-15T10:49:41;93505.94;;;8.19;41.93
79461;BME280;68929;42.666;23.324;2024-01-15T10:52:19;93484.94;;;8.42;45.02
79461;BME280;68929;42.666;23.324;2024-01-15T10:54:45;93473.00;;;8.74;42.69
79461;BME280;68929;42.666;23.324;2024-01-15T10:57:13;93465.94;;;9.54;41.70
79461;BME280;68929;42.666;23.324;2024-01-15T10:59:40;93464.75;;;9.62;42.31
79461;BME280;68929;42.666;23.324;2024-01-15T11:02:08;93487.50;;;9.80;40.17
79461;BME280;68929;42.666;23.324;2024-01-15T11:04:35;93475.88;;;8.61;39.62
79461;BME280;68929;42.666;23.324;2024-01-15T11:07:01;93476.59;;;8.04;40.99
79461;BME280;68929;42.666;23.324;2024-01-15T11:09:28;93473.53;;;8.07;44.66
79461;BME280;68929;42.666;23.324;2024-01-15T11:12:23;93465.81;;;9.61;42.47
79461;BME280;68929;42.666;23.324;2024-01-15T11:14:50;93467.13;;;9.47;39.15
79461;BME280;68929;42.666;23.324;2024-01-15T11:17:17;93444.59;;;9.28;40.34
79461;BME280;68929;42.666;23.324;2024-01-15T11:19:44;93449.59;;;10.14;39.32
79461;BME280;68929;42.666;23.324;2024-01-15T11:24:54;93420.66;;;11.17;39.18
79461;BME280;68929;42.666;23.324;2024-01-15T11:27:45;93436.78;;;11.37;38.34
79461;BME280;68929;42.666;23.324;2024-01-15T11:30:17;93453.34;;;10.51;38.58
79461;BME280;68929;42.666;23.324;2024-01-15T11:32:42;93430.16;;;10.75;39.52
79461;BME280;68929;42.666;23.324;2024-01-15T11:35:09;93395.63;;;11.24;37.33
79461;BME280;68929;42.666;23.324;2024-01-15T11:42:49;93413.72;;;12.13;37.16
79461;BME280;68929;42.666;23.324;2024-01-15T11:45:21;93413.53;;;12.19;37.40
79461;BME280;68929;42.666;23.324;2024-01-15T11:48:11;93429.53;;;11.49;35.41
79461;BME280;68929;42.666;23.324;2024-01-15T11:50:50;93428.63;;;10.79;37.25
79461;BME280;68929;42.666;23.324;2024-01-15T11:53:26;93430.63;;;10.17;39.62
79461;BME280;68929;42.666;23.324;2024-01-15T11:55:58;93411.81;;;11.28;38.69
79461;BME280;68929;42.666;23.324;2024-01-15T11:58:24;93398.78;;;11.48;38.89
79461;BME280;68929;42.666;23.324;2024-01-15T12:00:51;93412.09;;;11.53;37.93
79461;BME280;68929;42.666;23.324;2024-01-15T12:03:20;93402.88;;;11.82;38.97
79461;BME280;68929;42.666;23.324;2024-01-15T12:05:54;93403.25;;;11.96;37.96
79461;BME280;68929;42.666;23.324;2024-01-15T12:08:23;93402.16;;;11.92;37.36
79461;BME280;68929;42.666;23.324;2024-01-15T12:10:49;93360.63;;;11.66;37.54
79461;BME280;68929;42.666;23.324;2024-01-15T12:13:15;93380.16;;;11.60;37.73
79461;BME280;68929;42.666;23.324;2024-01-15T12:15:42;93396.44;;;11.25;37.85
79461;BME280;68929;42.666;23.324;2024-01-15T12:18:17;93363.47;;;11.11;40.07
79461;BME280;68929;42.666;23.324;2024-01-15T12:20:44;93378.78;;;11.57;38.59
79461;BME280;68929;42.666;23.324;2024-01-15T12:23:12;93387.06;;;11.39;38.45
79461;BME280;68929;42.666;23.324;2024-01-15T12:25:39;93340.75;;;10.67;38.66
79461;BME280;68929;42.666;23.324;2024-01-15T12:28:06;93374.06;;;10.68;37.70
79461;BME280;68929;42.666;23.324;2024-01-15T12:30:46;93398.28;;;10.26;38.88
79461;BME280;68929;42.666;23.324;2024-01-15T12:33:14;93383.59;;;9.24;40.16
79461;BME280;68929;42.666;23.324;2024-01-15T12:35:39;93402.63;;;8.47;42.36
79461;BME280;68929;42.666;23.324;2024-01-15T12:38:04;93368.59;;;8.97;42.38
79461;BME280;68929;42.666;23.324;2024-01-15T12:40:32;93376.47;;;9.36;43.50
79461;BME280;68929;42.666;23.324;2024-01-15T12:43:01;93327.41;;;10.18;41.72
79461;BME280;68929;42.666;23.324;2024-01-15T12:45:26;93367.78;;;10.74;39.36
79461;BME280;68929;42.666;23.324;2024-01-15T12:47:53;93366.69;;;10.70;38.87
79461;BME280;68929;42.666;23.324;2024-01-15T12:50:18;93371.00;;;10.37;40.04
79461;BME280;68929;42.666;23.324;2024-01-15T12:52:44;93334.28;;;9.36;42.97
79461;BME280;68929;42.666;23.324;2024-01-15T12:55:09;93354.25;;;10.92;41.57
79461;BME280;68929;42.666;23.324;2024-01-15T12:57:36;93356.56;;;11.10;40.22
79461;BME280;68929;42.666;23.324;2024-01-15T13:00:06;93358.44;;;10.88;40.57
79461;BME280;68929;42.666;23.324;2024-01-15T13:02:48;93355.38;;;10.96;39.58
79461;BME280;68929;42.666;23.324;2024-01-15T13:05:16;93343.88;;;10.25;39.64
79461;BME280;68929;42.666;23.324;2024-01-15T13:07:42;93342.56;;;10.44;41.46